createdAt,value
2019-02-05T00:00:29.106Z,68.22
2019-02-05T00:01:00.498Z,69.70
2019-02-05T00:01:33.974Z,68.15
2019-02-05T00:02:04.680Z,66.97
2019-02-05T00:02:35.908Z,68.02
2019-02-05T00:03:07.117Z,68.42
2019-02-05T00:03:38.387Z,63.33
2019-02-05T00:04:09.608Z,59.70
2019-02-05T00:04:40.770Z,61.53
2019-02-05T00:05:11.967Z,66.07
2019-02-05T00:05:44.036Z,67.75
2019-02-05T00:06:15.226Z,67.12
2019-02-05T00:06:46.407Z,66.37
2019-02-05T00:07:17.581Z,66.53
2019-02-05T00:07:49.141Z,66.53
2019-02-05T00:08:20.379Z,67.87
2019-02-05T00:08:51.568Z,69.20
2019-02-05T00:09:22.773Z,68.80
2019-02-05T00:09:53.920Z,65.35
2019-02-05T00:10:25.096Z,61.18
2019-02-05T00:10:56.258Z,65.17
2019-02-05T00:11:27.446Z,62.55
2019-02-05T00:11:58.623Z,66.90
2019-02-05T00:12:29.836Z,62.08
2019-02-05T00:13:01.009Z,62.80
2019-02-05T00:13:32.789Z,60.95
2019-02-05T00:14:03.977Z,62.20
2019-02-05T00:14:35.169Z,60.20
2019-02-05T00:15:06.400Z,63.10
2019-02-05T00:15:37.572Z,64.32
2019-02-05T00:16:08.766Z,65.20
2019-02-05T00:16:39.945Z,64.82
2019-02-05T00:17:11.130Z,67.70
2019-02-05T00:17:42.324Z,67.40
2019-02-05T00:18:13.667Z,66.77
2019-02-05T00:18:44.855Z,67.22
2019-02-05T00:19:16.031Z,67.60
2019-02-05T00:19:47.211Z,70.45
2019-02-05T00:20:18.425Z,68.35
2019-02-05T00:20:49.590Z,65.87
2019-02-05T00:21:20.759Z,63.73
2019-02-05T00:21:51.946Z,67.08
2019-02-05T00:22:23.159Z,68.15
2019-02-05T00:22:54.390Z,63.00
2019-02-05T00:23:25.623Z,64.72
2019-02-05T00:23:56.920Z,61.53
2019-02-05T00:24:28.137Z,64.92
2019-02-05T00:24:59.408Z,65.12
2019-02-05T00:25:30.623Z,63.15
2019-02-05T00:26:06.235Z,65.87
2019-02-05T00:26:34.845Z,65.00
2019-02-05T00:27:06.086Z,64.47
2019-02-05T00:27:37.305Z,62.70
2019-02-05T00:28:08.527Z,65.83
2019-02-05T00:28:39.765Z,64.30
2019-02-05T00:29:10.981Z,61.90
2019-02-05T00:29:42.200Z,59.70
2019-02-05T00:30:13.426Z,63.15
2019-02-05T00:30:51.949Z,59.48
2019-02-05T00:31:23.210Z,57.45
2019-02-05T00:31:54.722Z,49.25
2019-02-05T00:32:25.952Z,47.05
2019-02-05T00:32:57.172Z,49.98
2019-02-05T00:33:28.419Z,46.85
2019-02-05T00:33:59.646Z,46.40
2019-02-05T00:34:30.851Z,45.80
2019-02-05T00:35:02.084Z,51.88
2019-02-05T00:35:33.311Z,44.80
2019-02-05T00:36:04.530Z,47.38
2019-02-05T00:36:35.737Z,48.87
2019-02-05T00:37:06.951Z,54.85
2019-02-05T00:37:38.600Z,57.45
2019-02-05T00:38:09.815Z,62.93
2019-02-05T00:38:41.049Z,61.68
2019-02-05T00:39:12.267Z,62.60
2019-02-05T00:39:43.522Z,62.27
2019-02-05T00:40:14.788Z,60.20
2019-02-05T00:40:46.032Z,60.98
2019-02-05T00:41:17.266Z,60.70
2019-02-05T00:41:48.481Z,56.73
2019-02-05T00:42:19.713Z,54.33
2019-02-05T00:42:50.969Z,58.78
2019-02-05T00:43:22.579Z,57.35
2019-02-05T00:43:53.797Z,54.27
2019-02-05T00:44:25.038Z,51.90
2019-02-05T00:44:56.270Z,51.33
2019-02-05T00:45:27.465Z,54.98
2019-02-05T00:45:58.694Z,59.80
2019-02-05T00:46:29.917Z,57.33
2019-02-05T00:47:01.180Z,55.88
2019-02-05T00:47:32.440Z,56.90
2019-02-05T00:48:03.937Z,54.67
2019-02-05T00:48:35.218Z,52.20
2019-02-05T00:49:06.721Z,52.20
2019-02-05T00:49:37.952Z,51.02
2019-02-05T00:50:09.163Z,52.70
2019-02-05T00:50:40.379Z,50.92
2019-02-05T00:51:11.664Z,51.20
2019-02-05T00:51:42.996Z,52.67
2019-02-05T00:52:14.185Z,52.40
2019-02-05T00:52:45.411Z,51.28
2019-02-05T00:53:16.609Z,55.55
2019-02-05T00:53:48.033Z,55.98
2019-02-05T00:54:19.245Z,57.27
2019-02-05T00:54:50.737Z,56.60
2019-02-05T00:55:22.419Z,50.80
2019-02-05T00:55:53.634Z,52.05
2019-02-05T00:56:24.883Z,54.33
2019-02-05T00:56:56.123Z,57.48
2019-02-05T00:57:27.337Z,55.25
2019-02-05T00:57:58.552Z,55.73
2019-02-05T00:58:29.777Z,60.80
2019-02-05T00:59:00.997Z,61.60
2019-02-05T00:59:32.457Z,63.08
2019-02-05T01:00:03.672Z,62.67
2019-02-05T01:00:35.269Z,54.95
2019-02-05T01:01:06.484Z,59.33
2019-02-05T01:01:37.736Z,60.78
2019-02-05T01:02:08.956Z,57.20
2019-02-05T01:02:40.163Z,55.63
2019-02-05T01:03:11.377Z,53.33
2019-02-05T01:03:42.637Z,57.55
2019-02-05T01:04:13.886Z,60.88
2019-02-05T01:04:45.098Z,58.83
2019-02-05T01:05:16.582Z,67.15
2019-02-05T01:05:47.799Z,65.78
2019-02-05T01:06:19.234Z,65.60
2019-02-05T01:06:50.478Z,62.33
2019-02-05T01:07:21.734Z,57.23
2019-02-05T01:07:53.077Z,59.83
2019-02-05T01:08:24.286Z,62.73
2019-02-05T01:08:55.569Z,61.92
2019-02-05T01:09:26.780Z,65.85
2019-02-05T01:09:58.024Z,65.62
2019-02-05T01:10:29.264Z,60.80
2019-02-05T01:11:00.768Z,58.55
2019-02-05T01:11:32.004Z,57.90
2019-02-05T01:12:03.585Z,57.25
2019-02-05T01:12:34.824Z,57.65
2019-02-05T01:13:06.067Z,57.78
2019-02-05T01:13:37.331Z,57.90
2019-02-05T01:14:08.543Z,60.00
2019-02-05T01:14:39.752Z,59.03
2019-02-05T01:15:10.999Z,58.38
2019-02-05T01:15:42.254Z,59.70
2019-02-05T01:16:13.501Z,60.00
2019-02-05T01:16:44.822Z,58.45
2019-02-05T01:17:16.111Z,58.15
2019-02-05T01:17:47.830Z,59.80
2019-02-05T01:18:19.054Z,61.35
2019-02-05T01:18:50.286Z,63.20
2019-02-05T01:19:21.508Z,61.02
2019-02-05T01:19:52.708Z,62.10
2019-02-05T01:20:23.935Z,61.20
2019-02-05T01:20:55.184Z,59.48
2019-02-05T01:21:26.399Z,59.63
2019-02-05T01:21:57.707Z,60.38
2019-02-05T01:22:29.105Z,59.50
2019-02-05T01:23:00.345Z,58.55
2019-02-05T01:23:31.967Z,59.20
2019-02-05T01:24:03.194Z,59.48
2019-02-05T01:24:34.381Z,59.35
2019-02-05T01:25:05.645Z,59.33
2019-02-05T01:25:36.859Z,60.88
2019-02-05T01:26:08.152Z,59.77
2019-02-05T01:26:39.425Z,61.63
2019-02-05T01:27:10.648Z,58.95
2019-02-05T01:27:41.862Z,61.20
2019-02-05T01:28:13.088Z,58.78
2019-02-05T01:28:44.313Z,60.95
2019-02-05T01:29:16.014Z,60.78
2019-02-05T01:29:47.228Z,58.02
2019-02-05T01:30:18.449Z,58.25
2019-02-05T01:30:49.668Z,58.70
2019-02-05T01:31:20.917Z,56.30
2019-02-05T01:31:52.146Z,57.17
2019-02-05T01:32:23.355Z,55.48
2019-02-05T01:32:56.893Z,55.33
2019-02-05T01:33:28.132Z,54.70
2019-02-05T01:33:59.345Z,49.27
2019-02-05T01:34:30.570Z,51.10
2019-02-05T01:35:02.049Z,49.30
2019-02-05T01:35:33.284Z,46.88
2019-02-05T01:36:04.504Z,46.88
2019-02-05T01:36:35.853Z,49.53
2019-02-05T01:37:07.065Z,48.17
2019-02-05T01:37:38.572Z,50.52
2019-02-05T01:38:09.939Z,50.92
2019-02-05T01:38:41.177Z,54.05
2019-02-05T01:39:12.397Z,53.92
2019-02-05T01:39:43.632Z,57.15
2019-02-05T01:40:14.823Z,56.30
2019-02-05T01:40:46.391Z,54.08
2019-02-05T01:41:17.625Z,51.42
2019-02-05T01:41:48.815Z,50.28
2019-02-05T01:42:20.062Z,47.95
2019-02-05T01:42:51.284Z,48.00
2019-02-05T01:43:22.506Z,48.52
2019-02-05T01:43:53.717Z,48.80
2019-02-05T01:44:24.956Z,50.12
2019-02-05T01:44:56.158Z,49.05
2019-02-05T01:45:27.373Z,52.25
2019-02-05T01:45:58.603Z,54.75
2019-02-05T01:46:30.029Z,54.23
2019-02-05T01:47:01.282Z,50.85
2019-02-05T01:47:32.505Z,48.95
2019-02-05T01:48:03.715Z,49.55
2019-02-05T01:48:34.962Z,50.35
2019-02-05T01:49:06.243Z,49.65
2019-02-05T01:49:37.455Z,51.02
2019-02-05T01:50:08.690Z,51.13
2019-02-05T01:50:39.900Z,53.15
2019-02-05T01:51:11.123Z,53.40
2019-02-05T01:51:42.352Z,53.08
2019-02-05T01:52:14.267Z,52.73
2019-02-05T01:52:45.546Z,54.33
2019-02-05T01:53:16.777Z,51.95
2019-02-05T01:53:48.014Z,53.00
2019-02-05T01:54:19.221Z,56.15
2019-02-05T01:54:50.440Z,55.88
2019-02-05T01:55:21.655Z,55.60
2019-02-05T01:55:52.888Z,58.17
2019-02-05T01:56:24.157Z,56.18
2019-02-05T01:56:55.382Z,55.58
2019-02-05T01:57:26.604Z,55.85
2019-02-05T01:57:58.250Z,56.30
2019-02-05T01:58:29.492Z,56.33
2019-02-05T01:59:00.721Z,58.13
2019-02-05T01:59:31.926Z,58.30
2019-02-05T02:00:03.220Z,55.75
2019-02-05T02:00:34.442Z,61.30
2019-02-05T02:01:05.731Z,59.80
2019-02-05T02:01:36.962Z,51.65
2019-02-05T02:02:08.175Z,55.05
2019-02-05T02:02:39.378Z,54.58
2019-02-05T02:03:10.595Z,54.75
2019-02-05T02:03:42.215Z,58.02
2019-02-05T02:04:13.449Z,60.28
2019-02-05T02:04:44.641Z,59.45
2019-02-05T02:05:15.907Z,59.00
2019-02-05T02:05:47.169Z,62.45
2019-02-05T02:06:18.401Z,62.78
2019-02-05T02:06:49.612Z,61.98
2019-02-05T02:07:20.876Z,61.53
2019-02-05T02:07:52.119Z,63.05
2019-02-05T02:08:23.433Z,61.80
2019-02-05T02:08:54.662Z,62.27
2019-02-05T02:09:26.309Z,60.28
2019-02-05T02:09:57.522Z,58.98
2019-02-05T02:10:28.779Z,59.50
2019-02-05T02:10:59.976Z,59.10
2019-02-05T02:11:31.208Z,58.60
2019-02-05T02:12:02.422Z,57.45
2019-02-05T02:12:33.659Z,58.95
2019-02-05T02:13:04.892Z,57.85
2019-02-05T02:13:36.162Z,58.50
2019-02-05T02:14:07.540Z,55.92
2019-02-05T02:14:38.815Z,55.35
2019-02-05T02:15:10.068Z,56.40
2019-02-05T02:15:41.290Z,60.73
2019-02-05T02:16:12.529Z,62.20
2019-02-05T02:16:43.741Z,62.50
2019-02-05T02:17:14.980Z,63.45
2019-02-05T02:17:46.198Z,61.85
2019-02-05T02:18:17.421Z,62.40
2019-02-05T02:18:48.634Z,64.10
2019-02-05T02:19:19.901Z,64.03
2019-02-05T02:19:51.397Z,61.33
2019-02-05T02:20:22.625Z,61.53
2019-02-05T02:20:53.859Z,64.22
2019-02-05T02:21:25.069Z,63.15
2019-02-05T02:21:56.285Z,63.30
2019-02-05T02:22:27.494Z,63.02
2019-02-05T02:22:59.020Z,62.67
2019-02-05T02:23:30.301Z,64.00
2019-02-05T02:24:01.518Z,64.40
2019-02-05T02:24:32.742Z,67.05
2019-02-05T02:25:03.955Z,62.20
2019-02-05T02:25:35.663Z,64.65
2019-02-05T02:26:06.899Z,65.42
2019-02-05T02:26:38.223Z,67.40
2019-02-05T02:27:09.441Z,65.35
2019-02-05T02:27:40.663Z,66.00
2019-02-05T02:28:11.952Z,65.47
2019-02-05T02:28:43.161Z,66.75
2019-02-05T02:29:14.461Z,65.30
2019-02-05T02:29:45.703Z,65.85
2019-02-05T02:30:16.977Z,66.40
2019-02-05T02:30:48.189Z,68.12
2019-02-05T02:31:19.700Z,67.60
2019-02-05T02:31:50.976Z,67.25
2019-02-05T02:32:22.211Z,71.00
2019-02-05T02:32:53.442Z,67.85
2019-02-05T02:33:24.664Z,67.17
2019-02-05T02:33:55.896Z,66.87
2019-02-05T02:34:27.122Z,68.70
2019-02-05T02:34:58.355Z,68.97
2019-02-05T02:35:29.614Z,70.62
2019-02-05T02:36:00.823Z,71.75
2019-02-05T02:36:32.053Z,69.62
2019-02-05T02:37:03.590Z,68.10
2019-02-05T02:37:34.814Z,71.72
2019-02-05T02:38:06.045Z,68.95
2019-02-05T02:38:37.262Z,73.00
2019-02-05T02:39:08.488Z,70.28
2019-02-05T02:39:39.721Z,69.72
2019-02-05T02:40:10.932Z,69.50
2019-02-05T02:40:42.217Z,67.45
2019-02-05T02:41:13.444Z,64.37
2019-02-05T02:41:44.660Z,71.40
2019-02-05T02:42:15.892Z,68.10
2019-02-05T02:42:47.414Z,67.65
2019-02-05T02:43:18.639Z,64.03
2019-02-05T02:43:49.868Z,64.80
2019-02-05T02:44:21.074Z,64.70
2019-02-05T02:44:52.314Z,65.80
2019-02-05T02:45:23.643Z,66.15
2019-02-05T02:45:54.938Z,65.90
2019-02-05T02:46:27.123Z,65.42
2019-02-05T02:46:58.396Z,68.78
2019-02-05T02:47:29.608Z,66.97
2019-02-05T02:48:00.839Z,69.90
2019-02-05T02:48:32.479Z,66.62
2019-02-05T02:49:03.742Z,68.60
2019-02-05T02:49:34.934Z,65.10
2019-02-05T02:50:06.167Z,62.83
2019-02-05T02:50:37.446Z,64.25
2019-02-05T02:51:08.695Z,65.87
2019-02-05T02:51:39.952Z,67.32
2019-02-05T02:52:11.169Z,65.70
2019-02-05T02:52:42.402Z,68.37
2019-02-05T02:53:13.613Z,66.90
2019-02-05T02:53:44.843Z,67.05
2019-02-05T02:54:16.626Z,64.37
2019-02-05T02:54:47.875Z,65.85
2019-02-05T02:55:19.103Z,67.32
2019-02-05T02:55:50.339Z,64.75
2019-02-05T02:56:21.568Z,65.62
2019-02-05T02:57:04.394Z,58.95
2019-02-05T02:57:25.769Z,62.15
2019-02-05T02:57:56.978Z,62.48
2019-02-05T02:58:28.239Z,62.25
2019-02-05T02:58:59.477Z,65.37
2019-02-05T02:59:30.691Z,68.72
2019-02-05T03:00:02.813Z,68.15
2019-02-05T03:00:34.085Z,69.45
2019-02-05T03:01:05.297Z,66.42
2019-02-05T03:01:36.532Z,68.28
2019-02-05T03:02:07.753Z,63.20
2019-02-05T03:02:38.981Z,65.32
2019-02-05T03:03:10.236Z,68.50
2019-02-05T03:03:41.464Z,68.05
2019-02-05T03:04:12.719Z,66.10
2019-02-05T03:04:43.930Z,67.25
2019-02-05T03:05:15.186Z,68.22
2019-02-05T03:05:46.911Z,66.30
2019-02-05T03:06:18.124Z,67.17
2019-02-05T03:06:51.316Z,66.55
2019-02-05T03:07:22.545Z,65.15
2019-02-05T03:07:53.769Z,64.03
2019-02-05T03:08:25.005Z,67.37
2019-02-05T03:08:56.272Z,67.72
2019-02-05T03:09:27.571Z,66.97
2019-02-05T03:09:58.757Z,67.20
2019-02-05T03:10:30.245Z,68.37
2019-02-05T03:11:01.513Z,67.58
2019-02-05T03:11:32.708Z,66.25
2019-02-05T03:12:03.930Z,65.83
2019-02-05T03:12:35.172Z,67.78
2019-02-05T03:13:06.412Z,69.58
2019-02-05T03:13:37.649Z,70.25
2019-02-05T03:14:08.904Z,71.40
2019-02-05T03:14:40.109Z,71.28
2019-02-05T03:15:11.320Z,73.85
2019-02-05T03:15:42.549Z,76.17
2019-02-05T03:16:14.231Z,72.60
2019-02-05T03:16:45.446Z,75.67
2019-02-05T03:17:16.672Z,73.92
2019-02-05T03:17:47.925Z,71.65
2019-02-05T03:18:19.189Z,71.15
2019-02-05T03:18:50.413Z,73.57
2019-02-05T03:19:21.653Z,73.20
2019-02-05T03:19:52.864Z,78.05
2019-02-05T03:20:24.085Z,76.62
2019-02-05T03:20:55.816Z,76.15
2019-02-05T03:21:27.044Z,72.45
2019-02-05T03:21:58.282Z,74.65
2019-02-05T03:22:29.513Z,75.28
2019-02-05T03:23:00.757Z,72.80
2019-02-05T03:23:32.076Z,74.60
2019-02-05T03:24:03.296Z,72.20
2019-02-05T03:24:34.513Z,73.70
2019-02-05T03:25:05.748Z,74.42
2019-02-05T03:25:37.453Z,75.32
2019-02-05T03:26:08.698Z,72.62
2019-02-05T03:26:39.914Z,72.22
2019-02-05T03:27:17.971Z,68.80
2019-02-05T03:27:44.132Z,70.47
2019-02-05T03:28:15.400Z,69.90
2019-02-05T03:28:46.627Z,69.80
2019-02-05T03:29:17.822Z,70.50
2019-02-05T03:29:49.035Z,71.65
2019-02-05T03:30:20.272Z,70.22
2019-02-05T03:30:51.553Z,69.70
2019-02-05T03:31:24.467Z,70.37
2019-02-05T03:31:55.696Z,70.40
2019-02-05T03:32:26.922Z,68.87
2019-02-05T03:32:58.165Z,70.17
2019-02-05T03:33:29.451Z,70.30
2019-02-05T03:34:00.677Z,70.90
2019-02-05T03:34:31.951Z,71.62
2019-02-05T03:35:03.170Z,70.85
2019-02-05T03:35:34.389Z,72.60
2019-02-05T03:36:05.591Z,72.62
2019-02-05T03:36:36.812Z,72.42
2019-02-05T03:37:08.521Z,71.72
2019-02-05T03:37:39.758Z,72.27
2019-02-05T03:38:10.993Z,70.65
2019-02-05T03:38:42.262Z,70.28
2019-02-05T03:39:13.519Z,72.10
2019-02-05T03:39:45.013Z,74.27
2019-02-05T03:40:16.635Z,71.70
2019-02-05T03:40:47.853Z,70.60
2019-02-05T03:41:19.082Z,69.85
2019-02-05T03:41:50.532Z,72.25
2019-02-05T03:42:21.793Z,71.95
2019-02-05T03:42:53.028Z,70.57
2019-02-05T03:43:24.315Z,73.90
2019-02-05T03:43:55.536Z,73.72
2019-02-05T03:44:26.783Z,74.42
2019-02-05T03:44:58.027Z,76.17
2019-02-05T03:45:29.247Z,73.28
2019-02-05T03:46:00.456Z,73.78
2019-02-05T03:46:31.673Z,76.87
2019-02-05T03:47:02.909Z,77.87
2019-02-05T03:47:34.510Z,76.25
2019-02-05T03:48:05.732Z,77.05
2019-02-05T03:48:37.002Z,74.40
2019-02-05T03:49:08.205Z,76.25
2019-02-05T03:49:39.445Z,73.10
2019-02-05T03:50:10.657Z,73.67
2019-02-05T03:50:41.941Z,77.42
2019-02-05T03:51:13.208Z,76.33
2019-02-05T03:51:44.470Z,77.70
2019-02-05T03:52:15.984Z,81.63
2019-02-05T03:52:47.491Z,77.85
2019-02-05T03:53:18.740Z,79.12
2019-02-05T03:53:49.956Z,80.67
2019-02-05T03:54:21.183Z,81.85
2019-02-05T03:54:52.446Z,82.80
2019-02-05T03:55:23.675Z,87.40
2019-02-05T03:55:54.912Z,88.00
2019-02-05T03:56:26.194Z,84.55
2019-02-05T03:56:57.405Z,83.10
2019-02-05T03:57:31.033Z,81.08
2019-02-05T03:58:01.584Z,83.80
2019-02-05T03:58:32.807Z,85.17
2019-02-05T03:59:04.049Z,84.70
2019-02-05T03:59:35.329Z,83.50
2019-02-05T04:00:06.567Z,86.63
2019-02-05T04:00:37.779Z,81.30
2019-02-05T04:01:09.015Z,85.35
2019-02-05T04:01:40.286Z,81.65
2019-02-05T04:02:11.532Z,80.55
2019-02-05T04:02:42.815Z,83.17
2019-02-05T04:03:14.088Z,81.00
2019-02-05T04:03:45.683Z,83.42
2019-02-05T04:04:16.927Z,82.08
2019-02-05T04:04:48.137Z,85.15
2019-02-05T04:05:19.368Z,83.35
2019-02-05T04:05:50.591Z,82.02
2019-02-05T04:06:21.809Z,81.28
2019-02-05T04:06:53.087Z,79.60
2019-02-05T04:07:24.304Z,81.42
2019-02-05T04:07:55.521Z,86.05
2019-02-05T04:08:26.746Z,85.32
2019-02-05T04:08:58.022Z,90.67
2019-02-05T04:09:29.623Z,90.97
2019-02-05T04:10:00.846Z,93.60
2019-02-05T04:10:32.062Z,92.15
2019-02-05T04:11:03.319Z,93.52
2019-02-05T04:11:34.617Z,93.35
2019-02-05T04:12:05.847Z,92.88
2019-02-05T04:12:37.105Z,93.12
2019-02-05T04:13:08.418Z,96.22
2019-02-05T04:13:39.662Z,94.15
2019-02-05T04:14:10.885Z,94.10
2019-02-05T04:14:42.115Z,96.95
2019-02-05T04:15:13.601Z,98.95
2019-02-05T04:15:44.853Z,98.45
2019-02-05T04:16:16.076Z,119.47
2019-02-05T04:16:47.326Z,107.22
2019-02-05T04:17:18.553Z,96.70
2019-02-05T04:17:49.823Z,95.92
2019-02-05T04:18:21.054Z,97.62
2019-02-05T04:18:52.288Z,96.60
2019-02-05T04:19:23.521Z,94.35
2019-02-05T04:19:54.753Z,96.05
2019-02-05T04:20:25.967Z,99.20
2019-02-05T04:20:57.464Z,99.60
2019-02-05T04:21:28.688Z,97.30
2019-02-05T04:21:59.905Z,102.47
2019-02-05T04:22:31.131Z,98.62
2019-02-05T04:23:02.386Z,98.50
2019-02-05T04:23:33.623Z,99.10
2019-02-05T04:24:04.851Z,102.07
2019-02-05T04:24:36.057Z,101.07
2019-02-05T04:25:07.277Z,99.92
2019-02-05T04:25:38.504Z,99.92
2019-02-05T04:26:09.709Z,102.53
2019-02-05T04:26:41.372Z,101.58
2019-02-05T04:27:12.589Z,100.20
2019-02-05T04:27:47.240Z,99.92
2019-02-05T04:28:16.779Z,101.07
2019-02-05T04:28:48.017Z,102.02
2019-02-05T04:29:19.278Z,101.72
2019-02-05T04:29:50.498Z,97.53
2019-02-05T04:30:21.722Z,98.87
2019-02-05T04:30:52.972Z,101.67
2019-02-05T04:31:24.207Z,100.58
2019-02-05T04:31:55.429Z,93.85
2019-02-05T04:32:27.147Z,99.45
2019-02-05T04:32:58.415Z,98.62
2019-02-05T04:33:29.647Z,99.35
2019-02-05T04:34:00.954Z,99.77
2019-02-05T04:34:32.266Z,100.82
2019-02-05T04:35:03.557Z,99.87
2019-02-05T04:35:34.770Z,99.50
2019-02-05T04:36:06.046Z,96.50
2019-02-05T04:36:37.292Z,96.60
2019-02-05T04:37:08.625Z,94.70
2019-02-05T04:37:39.819Z,94.28
2019-02-05T04:38:11.624Z,96.55
2019-02-05T04:38:42.891Z,89.42
2019-02-05T04:39:14.125Z,91.08
2019-02-05T04:39:45.359Z,91.67
2019-02-05T04:40:16.593Z,93.92
2019-02-05T04:40:47.821Z,91.67
2019-02-05T04:41:19.065Z,91.55
2019-02-05T04:41:50.368Z,90.40
2019-02-05T04:42:21.591Z,89.83
2019-02-05T04:42:53.090Z,91.05
2019-02-05T04:43:24.319Z,88.75
2019-02-05T04:43:55.551Z,88.25
2019-02-05T04:44:26.813Z,89.95
2019-02-05T04:44:58.113Z,90.72
2019-02-05T04:45:34.176Z,87.55
2019-02-05T04:46:02.327Z,88.30
2019-02-05T04:46:33.537Z,86.20
2019-02-05T04:47:04.778Z,90.70
2019-02-05T04:47:36.002Z,90.47
2019-02-05T04:48:07.301Z,90.45
2019-02-05T04:48:38.562Z,91.78
2019-02-05T04:49:09.780Z,87.62
2019-02-05T04:49:41.378Z,87.82
2019-02-05T04:50:12.673Z,90.12
2019-02-05T04:50:43.922Z,89.62
2019-02-05T04:51:15.169Z,88.92
2019-02-05T04:51:46.393Z,90.05
2019-02-05T04:52:17.620Z,87.47
2019-02-05T04:52:48.870Z,89.72
2019-02-05T04:53:20.156Z,89.42
2019-02-05T04:53:51.377Z,92.50
2019-02-05T04:54:22.874Z,92.42
2019-02-05T04:54:54.106Z,90.00
2019-02-05T04:55:25.364Z,88.25
2019-02-05T04:55:56.583Z,86.70
2019-02-05T04:56:27.846Z,86.75
2019-02-05T04:56:59.100Z,86.67
2019-02-05T04:57:30.319Z,88.47
2019-02-05T04:58:01.756Z,84.97
2019-02-05T04:58:33.043Z,87.30
2019-02-05T04:59:04.311Z,87.05
2019-02-05T04:59:35.505Z,87.15
2019-02-05T05:00:07.018Z,89.77
2019-02-05T05:00:38.240Z,84.80
2019-02-05T05:01:09.514Z,85.17
2019-02-05T05:01:40.729Z,85.20
2019-02-05T05:02:11.939Z,85.90
2019-02-05T05:02:43.298Z,98.27
2019-02-05T05:03:14.521Z,96.72
2019-02-05T05:03:45.758Z,94.92
2019-02-05T05:04:16.969Z,94.47
2019-02-05T05:04:48.200Z,88.87
2019-02-05T05:05:19.502Z,92.62
2019-02-05T05:05:51.010Z,91.30
2019-02-05T05:06:22.276Z,90.95
2019-02-05T05:06:53.576Z,91.05
2019-02-05T05:07:24.821Z,90.20
2019-02-05T05:07:56.048Z,89.32
2019-02-05T05:08:27.264Z,89.92
2019-02-05T05:08:58.505Z,89.22
2019-02-05T05:09:29.748Z,90.83
2019-02-05T05:10:00.992Z,91.63
2019-02-05T05:10:32.198Z,91.15
2019-02-05T05:11:03.429Z,88.52
2019-02-05T05:11:35.094Z,83.75
2019-02-05T05:12:06.337Z,84.92
2019-02-05T05:12:37.551Z,87.95
2019-02-05T05:13:08.770Z,93.27
2019-02-05T05:13:40.025Z,92.10
2019-02-05T05:14:11.267Z,91.60
2019-02-05T05:14:42.528Z,87.10
2019-02-05T05:15:13.694Z,85.70
2019-02-05T05:15:44.954Z,86.32
2019-02-05T05:16:16.440Z,89.55
2019-02-05T05:16:47.649Z,79.58
2019-02-05T05:17:19.335Z,74.10
2019-02-05T05:17:50.594Z,71.95
2019-02-05T05:18:21.829Z,73.92
2019-02-05T05:18:53.044Z,70.10
2019-02-05T05:19:24.271Z,75.32
2019-02-05T05:19:55.514Z,75.80
2019-02-05T05:20:26.736Z,79.70
2019-02-05T05:20:57.963Z,80.92
2019-02-05T05:21:29.197Z,78.40
2019-02-05T05:22:00.762Z,77.47
2019-02-05T05:22:31.987Z,71.17
2019-02-05T05:23:03.212Z,71.60
2019-02-05T05:23:34.453Z,71.53
2019-02-05T05:24:05.669Z,72.72
2019-02-05T05:24:36.909Z,70.92
2019-02-05T05:25:08.111Z,76.17
2019-02-05T05:25:39.348Z,78.10
2019-02-05T05:26:10.541Z,78.78
2019-02-05T05:26:41.800Z,79.70
2019-02-05T05:27:13.027Z,77.15
2019-02-05T05:27:44.783Z,77.78
2019-02-05T05:28:16.021Z,79.58
2019-02-05T05:28:47.250Z,79.05
2019-02-05T05:29:18.485Z,79.85
2019-02-05T05:29:49.760Z,81.65
2019-02-05T05:30:20.976Z,81.65
2019-02-05T05:30:52.182Z,82.45
2019-02-05T05:31:23.395Z,84.03
2019-02-05T05:31:54.607Z,79.45
2019-02-05T05:32:26.177Z,86.30
2019-02-05T05:32:57.393Z,87.65
2019-02-05T05:33:28.633Z,82.90
2019-02-05T05:33:59.850Z,82.55
2019-02-05T05:34:31.099Z,86.35
2019-02-05T05:35:02.322Z,76.07
2019-02-05T05:35:41.863Z,75.67
2019-02-05T05:36:06.482Z,83.15
2019-02-05T05:36:37.713Z,76.07
2019-02-05T05:37:08.935Z,80.90
2019-02-05T05:37:40.289Z,77.75
2019-02-05T05:38:11.992Z,75.60
2019-02-05T05:38:43.202Z,69.47
2019-02-05T05:39:14.414Z,75.05
2019-02-05T05:39:45.626Z,75.75
2019-02-05T05:40:16.962Z,72.05
2019-02-05T05:40:48.153Z,70.17
2019-02-05T05:41:19.432Z,71.97
2019-02-05T05:41:50.647Z,74.07
2019-02-05T05:42:21.890Z,71.37
2019-02-05T05:42:53.099Z,66.20
2019-02-05T05:43:24.329Z,68.55
2019-02-05T05:43:55.826Z,65.97
2019-02-05T05:44:27.035Z,64.37
2019-02-05T05:44:58.253Z,65.05
2019-02-05T05:45:29.494Z,69.15
2019-02-05T05:46:00.780Z,67.40
2019-02-05T05:46:32.015Z,71.95
2019-02-05T05:47:03.254Z,71.60
2019-02-05T05:47:34.461Z,70.42
2019-02-05T05:48:05.671Z,69.80
2019-02-05T05:48:37.062Z,68.78
2019-02-05T05:49:08.269Z,68.70
2019-02-05T05:49:39.510Z,69.90
2019-02-05T05:50:10.738Z,63.87
2019-02-05T05:50:41.955Z,63.92
2019-02-05T05:51:13.229Z,65.45
2019-02-05T05:51:44.431Z,65.47
2019-02-05T05:52:15.634Z,67.55
2019-02-05T05:52:46.854Z,62.62
2019-02-05T05:53:18.067Z,61.25
2019-02-05T05:53:49.299Z,59.58
2019-02-05T05:54:20.853Z,61.00
2019-02-05T05:54:52.063Z,61.53
2019-02-05T05:55:23.278Z,64.10
2019-02-05T05:55:54.513Z,62.38
2019-02-05T05:56:25.774Z,64.50
2019-02-05T05:56:57.024Z,64.97
2019-02-05T05:57:28.264Z,64.58
2019-02-05T05:57:59.532Z,66.40
2019-02-05T05:58:30.753Z,66.75
2019-02-05T05:59:01.985Z,62.27
2019-02-05T05:59:33.186Z,62.38
2019-02-05T06:00:04.708Z,58.95
2019-02-05T06:00:35.929Z,60.55
2019-02-05T06:01:07.203Z,63.00
2019-02-05T06:01:38.435Z,62.25
2019-02-05T06:02:09.641Z,62.13
2019-02-05T06:02:40.851Z,59.30
2019-02-05T06:03:12.119Z,63.38
2019-02-05T06:03:43.331Z,65.40
2019-02-05T06:04:14.591Z,61.35
2019-02-05T06:04:46.088Z,61.40
2019-02-05T06:05:17.333Z,54.50
2019-02-05T06:05:48.598Z,57.05
2019-02-05T06:06:19.827Z,55.25
2019-02-05T06:06:51.088Z,51.53
2019-02-05T06:07:22.308Z,53.87
2019-02-05T06:07:53.511Z,51.85
2019-02-05T06:08:24.745Z,53.17
2019-02-05T06:08:55.955Z,54.25
2019-02-05T06:09:27.167Z,54.65
2019-02-05T06:09:58.379Z,53.95
2019-02-05T06:10:29.974Z,54.60
2019-02-05T06:11:01.184Z,52.70
2019-02-05T06:11:32.422Z,50.92
2019-02-05T06:12:03.632Z,54.15
2019-02-05T06:12:34.867Z,55.78
2019-02-05T06:13:06.110Z,56.18
2019-02-05T06:13:37.344Z,56.20
2019-02-05T06:14:08.669Z,52.67
2019-02-05T06:14:39.929Z,55.50
2019-02-05T06:15:11.318Z,57.10
2019-02-05T06:15:42.617Z,56.35
2019-02-05T06:16:13.927Z,62.15
2019-02-05T06:16:45.134Z,61.58
2019-02-05T06:17:16.342Z,63.40
2019-02-05T06:17:47.554Z,62.67
2019-02-05T06:18:18.762Z,59.85
2019-02-05T06:18:49.988Z,62.67
2019-02-05T06:19:21.250Z,64.22
2019-02-05T06:19:52.462Z,58.98
2019-02-05T06:20:23.664Z,54.03
2019-02-05T06:20:55.258Z,55.58
2019-02-05T06:21:26.479Z,53.90
2019-02-05T06:21:57.787Z,54.70
2019-02-05T06:22:29.018Z,55.90
2019-02-05T06:23:00.240Z,56.85
2019-02-05T06:23:31.444Z,60.83
2019-02-05T06:24:02.665Z,57.55
2019-02-05T06:24:33.896Z,59.25
2019-02-05T06:25:05.118Z,58.08
2019-02-05T06:25:36.381Z,59.15
2019-02-05T06:26:07.608Z,57.03
2019-02-05T06:26:39.108Z,57.17
2019-02-05T06:27:10.336Z,57.20
2019-02-05T06:27:41.544Z,54.27
2019-02-05T06:28:12.763Z,55.17
2019-02-05T06:28:44.042Z,55.98
2019-02-05T06:29:15.260Z,56.15
2019-02-05T06:29:46.473Z,53.90
2019-02-05T06:30:17.679Z,57.95
2019-02-05T06:30:48.890Z,56.75
2019-02-05T06:31:20.291Z,54.73
2019-02-05T06:31:51.535Z,55.00
2019-02-05T06:32:22.759Z,56.70
2019-02-05T06:32:54.021Z,58.10
2019-02-05T06:33:25.234Z,56.02
2019-02-05T06:33:56.443Z,55.58
2019-02-05T06:34:27.689Z,58.02
2019-02-05T06:34:58.893Z,59.98
2019-02-05T06:35:30.102Z,58.87
2019-02-05T06:36:01.317Z,59.90
2019-02-05T06:36:32.589Z,59.50
2019-02-05T06:37:04.174Z,61.92
2019-02-05T06:37:35.387Z,60.75
2019-02-05T06:38:06.583Z,60.33
2019-02-05T06:38:37.839Z,61.60
2019-02-05T06:39:09.070Z,62.75
2019-02-05T06:39:40.272Z,59.65
2019-02-05T06:40:11.474Z,59.25
2019-02-05T06:40:42.682Z,59.30
2019-02-05T06:41:13.909Z,60.05
2019-02-05T06:41:45.191Z,60.20
2019-02-05T06:42:16.533Z,58.83
2019-02-05T06:42:48.129Z,64.10
2019-02-05T06:43:19.351Z,73.45